Time;durP1;ratioP1;P1;durP2;ratioP2;P2;SDS_P1;SDS_P2;PMS_P1;PMS_P2;Temp;Humidity;BMP_temperature;BMP_pressure;BME280_temperature;BME280_humidity;BME280_pressure;Samples;Min_cycle;Max_cycle;Signal;HPM_P1;HPM_P2
2021/03/29 00:02:13;;;;;;;11.30;3.70;;;11.20;76.30;;;;;;5078619;28;20084;-82
2021/03/29 00:04:39;;;;;;;13.27;3.97;;;11.20;76.30;;;;;;5062264;28;20063;-83
2021/03/29 00:07:07;;;;;;;13.70;3.70;;;11.20;76.30;;;;;;5061881;28;20017;-83
2021/03/29 00:09:35;;;;;;;13.03;3.50;;;11.20;76.50;;;;;;5061004;28;20020;-83
2021/03/29 00:12:07;;;;;;;12.00;3.13;;;11.10;76.40;;;;;;5062359;28;20017;-83
2021/03/29 00:14:33;;;;;;;10.40;3.60;;;11.10;76.40;;;;;;5080799;28;20396;-83
2021/03/29 00:16:59;;;;;;;12.10;3.30;;;11.10;76.10;;;;;;5061557;28;20032;-83
2021/03/29 00:19:28;;;;;;;9.63;3.20;;;11.10;76.60;;;;;;5061349;28;20037;-83
2021/03/29 00:21:55;;;;;;;12.50;3.37;;;11.10;76.10;;;;;;5061551;28;20029;-83
2021/03/29 00:24:21;;;;;;;13.17;3.30;;;11.10;75.70;;;;;;5078144;28;20024;-83
2021/03/29 00:26:48;;;;;;;10.57;3.07;;;11.10;75.70;;;;;;5061198;28;20055;-83
2021/03/29 00:29:13;;;;;;;13.90;3.03;;;11.10;75.40;;;;;;5060171;28;20050;-82
2021/03/29 00:31:40;;;;;;;11.17;3.40;;;11.00;75.30;;;;;;5079287;28;20119;-82
2021/03/29 00:34:06;;;;;;;9.37;3.30;;;11.10;75.60;;;;;;5060844;28;20473;-83
2021/03/29 00:36:33;;;;;;;11.57;3.17;;;11.10;75.50;;;;;;5060663;28;20496;-82
2021/03/29 00:39:00;;;;;;;8.60;3.20;;;11.10;75.20;;;;;;5059965;28;20084;-83
2021/03/29 00:41:27;;;;;;;11.10;3.03;;;11.00;75.30;;;;;;5060345;28;20024;-82
2021/03/29 00:43:53;;;;;;;10.27;2.87;;;11.00;75.30;;;;;;5079754;28;20050;-83
2021/03/29 00:46:21;;;;;;;12.67;2.80;;;11.00;75.40;;;;;;5079243;28;20104;-83
2021/03/29 00:48:49;;;;;;;10.43;2.50;;;11.00;75.30;;;;;;5078899;28;20103;-83
2021/03/29 00:51:20;;;;;;;10.10;3.22;;;11.00;75.00;;;;;;5060179;28;20040;-82
2021/03/29 00:53:53;;;;;;;12.67;3.50;;;11.00;74.90;;;;;;5079387;28;20573;-83
2021/03/29 00:56:20;;;;;;;15.57;3.30;;;11.00;75.00;;;;;;5077725;28;20032;-82
2021/03/29 00:58:47;;;;;;;11.40;3.30;;;11.00;75.10;;;;;;5060245;28;20039;-83
2021/03/29 01:01:24;;;;;;;9.90;2.87;;;11.00;75.30;;;;;;5060508;28;20043;-84
2021/03/29 01:03:53;;;;;;;11.43;2.90;;;11.00;74.90;;;;;;5061345;28;20017;-83
2021/03/29 01:06:21;;;;;;;10.63;3.20;;;11.00;75.10;;;;;;5061174;28;20021;-83
2021/03/29 01:09:00;;;;;;;11.23;3.70;;;10.90;75.80;;;;;;5078412;28;20467;-82
2021/03/29 01:11:33;;;;;;;14.88;3.20;;;10.90;75.20;;;;;;5061679;28;20492;-83
2021/03/29 01:14:05;;;;;;;8.83;3.03;;;10.90;75.40;;;;;;5061544;28;20469;-83
2021/03/29 01:16:37;;;;;;;14.63;3.30;;;10.90;75.20;;;;;;5061557;28;20481;-82
2021/03/29 01:19:09;;;;;;;9.17;3.23;;;10.90;75.50;;;;;;5060945;28;20435;-82
2021/03/29 01:22:01;;;;;;;13.53;3.50;;;10.90;75.50;;;;;;5080170;28;20021;-82
2021/03/29 01:24:46;;;;;;;12.70;3.33;;;10.90;75.50;;;;;;5061580;28;20146;-83
2021/03/29 01:27:17;;;;;;;10.27;3.37;;;10.90;75.60;;;;;;5061804;28;20029;-82
2021/03/29 01:29:43;;;;;;;16.00;3.77;;;10.90;75.50;;;;;;5080665;22;20065;-85
2021/03/29 01:32:11;;;;;;;11.07;3.20;;;10.90;75.70;;;;;;5034793;28;20071;-85
2021/03/29 01:34:39;;;;;;;11.63;4.20;;;10.80;75.70;;;;;;5034909;28;20032;-85
2021/03/29 01:37:06;;;;;;;11.90;3.60;;;10.80;75.70;;;;;;5034611;28;20028;-85
2021/03/29 01:39:33;;;;;;;12.43;3.47;;;10.80;75.70;;;;;;5047524;28;20207;-85
2021/03/29 01:42:00;;;;;;;9.60;3.23;;;10.80;75.80;;;;;;5054485;28;20465;-85
2021/03/29 01:44:26;;;;;;;11.00;3.10;;;10.80;75.70;;;;;;5054625;28;20020;-85
2021/03/29 01:46:53;;;;;;;13.17;3.30;;;10.80;75.80;;;;;;5055354;28;20070;-85
2021/03/29 01:49:21;;;;;;;13.80;3.83;;;10.80;75.90;;;;;;5072447;28;20107;-85
2021/03/29 01:51:47;;;;;;;11.53;3.70;;;10.80;75.90;;;;;;5055168;28;20029;-84
2021/03/29 01:54:14;;;;;;;11.10;3.50;;;10.80;75.80;;;;;;5054933;28;20511;-85
2021/03/29 01:56:40;;;;;;;12.93;3.83;;;10.80;76.00;;;;;;5055020;28;20035;-85
2021/03/29 01:59:06;;;;;;;11.03;3.47;;;10.80;76.00;;;;;;5072001;28;20029;-85
2021/03/29 02:01:32;;;;;;;12.40;3.60;;;10.70;76.10;;;;;;5071187;28;20519;-85
2021/03/29 02:03:59;;;;;;;15.40;3.70;;;10.70;76.20;;;;;;5072666;28;20051;-84
2021/03/29 02:06:26;;;;;;;10.27;3.43;;;10.70;76.20;;;;;;5054294;28;20021;-85
2021/03/29 02:08:53;;;;;;;12.90;3.70;;;10.70;76.50;;;;;;5071704;28;20031;-85
2021/03/29 02:11:20;;;;;;;15.17;3.97;;;10.70;76.50;;;;;;5072287;28;20033;-85
2021/03/29 02:13:49;;;;;;;12.43;3.40;;;10.70;76.60;;;;;;5054321;28;20027;-85
2021/03/29 02:16:17;;;;;;;12.07;4.00;;;10.70;76.50;;;;;;5054289;28;20025;-84
2021/03/29 02:18:45;;;;;;;8.97;3.33;;;10.70;76.60;;;;;;5053993;28;20028;-86
2021/03/29 02:21:14;;;;;;;11.73;3.88;;;10.60;76.40;;;;;;5071624;28;20104;-85
2021/03/29 02:23:42;;;;;;;11.75;3.58;;;10.60;76.50;;;;;;5072330;28;20043;-85
2021/03/29 02:26:08;;;;;;;13.03;3.83;;;10.60;76.50;;;;;;5055138;28;20030;-85
2021/03/29 02:28:35;;;;;;;10.93;3.47;;;10.60;76.60;;;;;;5057889;28;20096;-85
2021/03/29 02:31:03;;;;;;;10.20;3.30;;;10.60;76.60;;;;;;5073983;28;20032;-85
2021/03/29 02:33:29;;;;;;;10.50;3.30;;;10.60;76.70;;;;;;5057015;28;20024;-85
2021/03/29 02:35:55;;;;;;;13.10;4.00;;;10.60;77.60;;;;;;5056575;28;20031;-85
2021/03/29 02:38:21;;;;;;;9.63;3.50;;;10.60;77.00;;;;;;5057883;28;20025;-84
2021/03/29 02:40:53;;;;;;;12.43;3.90;;;10.60;77.00;;;;;;5057023;28;20031;-85
2021/03/29 02:43:20;;;;;;;8.37;3.13;;;10.60;76.90;;;;;;5057318;28;20070;-85
2021/03/29 02:45:50;;;;;;;9.17;3.23;;;10.50;77.10;;;;;;5057244;28;20025;-85
2021/03/29 02:48:18;;;;;;;11.00;3.80;;;10.50;77.40;;;;;;5057429;28;20024;-85
2021/03/29 02:50:46;;;;;;;11.77;3.67;;;10.60;77.30;;;;;;5056891;28;20093;-84
2021/03/29 02:53:20;;;;;;;11.70;4.03;;;10.50;77.30;;;;;;5057341;28;20024;-85
2021/03/29 02:55:47;;;;;;;11.07;4.20;;;10.50;77.10;;;;;;5057233;28;20035;-85
2021/03/29 02:58:17;;;;;;;13.83;3.90;;;10.60;77.20;;;;;;5073645;28;20504;-85
2021/03/29 03:00:43;;;;;;;11.77;3.83;;;10.60;77.00;;;;;;5075098;28;20102;-85
2021/03/29 03:03:09;;;;;;;12.60;3.40;;;10.60;77.00;;;;;;5074218;28;20074;-84
2021/03/29 03:05:36;;;;;;;11.83;3.60;;;10.50;77.00;;;;;;5057414;28;20044;-85
2021/03/29 03:08:07;;;;;;;10.97;3.67;;;10.50;76.90;;;;;;5075708;28;20035;-85
2021/03/29 03:10:34;;;;;;;10.77;3.33;;;10.50;76.70;;;;;;5057076;28;20035;-85
2021/03/29 03:13:06;;;;;;;12.23;3.70;;;10.50;76.80;;;;;;5075530;28;20016;-85
2021/03/29 03:15:33;;;;;;;14.83;3.53;;;10.50;76.80;;;;;;5057714;28;20028;-85
2021/03/29 03:18:01;;;;;;;12.80;4.03;;;10.50;76.70;;;;;;5075137;28;20031;-84
2021/03/29 03:20:29;;;;;;;13.60;3.63;;;10.50;76.60;;;;;;5056786;28;20025;-84
2021/03/29 03:23:12;;;;;;;11.13;3.40;;;10.60;77.00;;;;;;5075342;28;20027;-84
2021/03/29 03:25:46;;;;;;;12.77;3.93;;;10.50;76.70;;;;;;5057426;28;20078;-85
2021/03/29 03:28:15;;;;;;;18.43;4.47;;;10.50;76.70;;;;;;5056609;28;20028;-85
2021/03/29 03:30:44;;;;;;;9.90;3.95;;;10.50;76.90;;;;;;5056297;28;20599;-84
2021/03/29 03:33:12;;;;;;;12.15;3.47;;;10.50;77.00;;;;;;5074281;28;20476;-85
2021/03/29 03:35:39;;;;;;;9.73;3.43;;;10.50;77.00;;;;;;5056882;28;20465;-85
2021/03/29 03:38:20;;;;;;;11.80;3.23;;;10.50;77.00;;;;;;5072554;28;20025;-85
2021/03/29 03:40:50;;;;;;;8.80;3.33;;;10.50;76.90;;;;;;5056421;28;20036;-85
2021/03/29 03:43:20;;;;;;;11.97;3.67;;;10.50;77.10;;;;;;5056961;28;20147;-85
2021/03/29 03:45:49;;;;;;;15.37;4.33;;;10.50;77.10;;;;;;5056769;28;20025;-84
2021/03/29 03:48:17;;;;;;;11.43;3.60;;;10.40;77.10;;;;;;5074351;28;20029;-84
2021/03/29 03:50:46;;;;;;;13.83;3.97;;;10.50;77.40;;;;;;5055571;28;20038;-85
2021/03/29 03:53:13;;;;;;;10.67;3.30;;;10.40;77.20;;;;;;5056087;28;20476;-84
2021/03/29 03:55:39;;;;;;;12.30;3.63;;;10.40;77.40;;;;;;5056492;28;20039;-85
2021/03/29 03:58:05;;;;;;;10.23;3.67;;;10.40;77.70;;;;;;5056040;28;20029;-85
2021/03/29 04:00:31;;;;;;;10.50;3.40;;;10.40;77.90;;;;;;5055756;28;20157;-86
2021/03/29 04:02:57;;;;;;;14.37;3.53;;;10.40;77.90;;;;;;5055949;28;20032;-85
2021/03/29 04:05:23;;;;;;;12.07;3.97;;;10.30;78.10;;;;;;5056083;28;20028;-85
2021/03/29 04:07:51;;;;;;;10.70;3.30;;;10.30;78.00;;;;;;5056021;28;20088;-85
2021/03/29 04:10:23;;;;;;;9.73;3.43;;;10.30;78.10;;;;;;5055515;28;20029;-85
2021/03/29 04:12:57;;;;;;;10.27;3.60;;;10.30;78.20;;;;;;5055931;28;20806;-85
2021/03/29 04:15:22;;;;;;;11.83;3.30;;;10.30;78.10;;;;;;5056067;28;20115;-84
2021/03/29 04:17:48;;;;;;;8.73;3.47;;;10.30;78.20;;;;;;5056148;28;20536;-84
2021/03/29 04:20:16;;;;;;;11.53;3.43;;;10.30;78.40;;;;;;5055786;28;20385;-85
2021/03/29 04:22:42;;;;;;;10.60;3.37;;;10.30;78.20;;;;;;5056247;28;20024;-85
2021/03/29 04:25:11;;;;;;;12.87;3.73;;;10.30;78.50;;;;;;5056742;28;20034;-85
2021/03/29 04:27:37;;;;;;;11.50;3.75;;;10.30;78.40;;;;;;5056073;28;20029;-84
2021/03/29 04:30:08;;;;;;;11.23;3.60;;;10.20;78.30;;;;;;5073251;28;20097;-85
2021/03/29 04:32:34;;;;;;;14.33;4.20;;;10.20;78.50;;;;;;5056355;28;20024;-85
2021/03/29 04:34:59;;;;;;;11.47;3.87;;;10.20;78.60;;;;;;5056022;28;20026;-85
2021/03/29 04:37:25;;;;;;;9.83;3.53;;;10.20;78.70;;;;;;5056366;28;20028;-85
2021/03/29 04:39:52;;;;;;;9.33;3.50;;;10.20;78.60;;;;;;5055077;28;20021;-84
2021/03/29 04:42:18;;;;;;;10.47;3.43;;;10.20;78.70;;;;;;5055511;28;20052;-85
2021/03/29 04:44:43;;;;;;;10.07;3.27;;;10.20;78.50;;;;;;5055434;28;20048;-85
2021/03/29 04:47:09;;;;;;;11.30;3.20;;;10.20;78.60;;;;;;5055369;28;20112;-85
2021/03/29 04:49:35;;;;;;;13.87;3.13;;;10.20;78.60;;;;;;5055248;28;20052;-84
2021/03/29 04:52:02;;;;;;;9.80;3.50;;;10.20;78.60;;;;;;5055376;28;20107;-85
2021/03/29 04:54:28;;;;;;;11.87;3.93;;;10.20;78.70;;;;;;5073868;28;20044;-85
2021/03/29 04:56:53;;;;;;;11.57;3.90;;;10.20;78.70;;;;;;5056922;28;20028;-85
2021/03/29 04:59:19;;;;;;;12.00;3.73;;;10.20;78.60;;;;;;5055409;28;20031;-85
2021/03/29 05:01:44;;;;;;;13.93;3.60;;;10.20;78.70;;;;;;5055798;28;20111;-85
2021/03/29 05:04:10;;;;;;;13.53;3.73;;;10.20;78.90;;;;;;5064801;28;20031;-84
2021/03/29 05:06:36;;;;;;;11.27;3.73;;;10.20;78.70;;;;;;5085157;28;20039;-84
2021/03/29 05:09:02;;;;;;;10.53;3.10;;;10.20;79.00;;;;;;5079076;28;20043;-85
2021/03/29 05:11:45;;;;;;;10.37;3.20;;;10.20;79.00;;;;;;5063952;28;20028;-84
2021/03/29 05:14:11;;;;;;;10.80;3.53;;;10.10;79.00;;;;;;5065727;28;20559;-85
2021/03/29 05:16:36;;;;;;;12.07;3.73;;;10.20;79.20;;;;;;5074869;28;20064;-85
2021/03/29 05:19:02;;;;;;;15.93;3.93;;;10.10;79.40;;;;;;5054482;28;20028;-85
2021/03/29 05:21:27;;;;;;;12.83;3.30;;;10.10;79.40;;;;;;5055322;28;20063;-84
2021/03/29 05:23:53;;;;;;;12.10;3.63;;;10.10;79.60;;;;;;5055069;28;20032;-85
2021/03/29 05:26:19;;;;;;;11.17;3.27;;;10.20;79.60;;;;;;5054862;28;20473;-85
2021/03/29 05:28:44;;;;;;;10.43;3.60;;;10.10;79.50;;;;;;5054369;28;20127;-84
2021/03/29 05:31:10;;;;;;;8.67;3.33;;;10.20;79.40;;;;;;5054238;28;20094;-84
2021/03/29 05:33:35;;;;;;;9.93;4.00;;;10.20;79.40;;;;;;5055341;28;20040;-85
2021/03/29 05:36:01;;;;;;;11.70;3.50;;;10.10;79.30;;;;;;5073492;28;20025;-85
2021/03/29 05:38:27;;;;;;;14.80;3.70;;;10.20;79.40;;;;;;5054606;28;20037;-85
2021/03/29 05:40:52;;;;;;;9.77;3.20;;;10.10;79.50;;;;;;5053738;28;20036;-85
2021/03/29 05:43:19;;;;;;;13.03;3.67;;;10.20;79.60;;;;;;5054733;28;20024;-85
2021/03/29 05:45:48;;;;;;;10.73;3.50;;;10.20;79.70;;;;;;5054663;28;20025;-85
2021/03/29 05:48:13;;;;;;;14.07;3.77;;;10.10;79.80;;;;;;5071207;28;20028;-85
2021/03/29 05:50:39;;;;;;;14.37;3.90;;;10.10;79.80;;;;;;5054076;28;20034;-84
2021/03/29 05:53:04;;;;;;;9.83;3.53;;;10.10;79.60;;;;;;5054630;28;20543;-85
2021/03/29 05:55:35;;;;;;;13.47;3.83;;;10.10;79.80;;;;;;5054505;28;20154;-83
2021/03/29 06:00:42;;;;;;;9.03;3.30;;;10.20;79.70;;;;;;5071772;28;20031;-85
2021/03/29 06:03:40;;;;;;;9.03;3.67;;;10.20;79.80;;;;;;5058304;28;20055;-85
2021/03/29 06:06:12;;;;;;;12.55;4.00;;;10.20;79.90;;;;;;5053175;28;20036;-85
2021/03/29 06:08:42;;;;;;;10.47;3.70;;;10.20;79.90;;;;;;5058358;28;20165;-85
2021/03/29 06:11:29;;;;;;;13.67;3.83;;;10.10;79.90;;;;;;5057700;28;20028;-85
2021/03/29 06:14:19;;;;;;;15.07;4.23;;;10.10;79.90;;;;;;5058631;28;20081;-85
2021/03/29 06:17:10;;;;;;;;;;;10.20;80.20;;;;;;5076715;28;20029;-86
2021/03/29 06:19:50;;;;;;;11.80;3.67;;;10.10;80.00;;;;;;5027349;28;19909;-85
2021/03/29 06:22:21;;;;;;;;;;;10.10;80.10;;;;;;5058759;28;20021;-84
2021/03/29 06:24:53;;;;;;;13.03;3.97;;;10.20;80.10;;;;;;5075842;28;19958;-85
2021/03/29 06:27:21;;;;;;;12.67;4.00;;;10.20;80.00;;;;;;5057711;28;20017;-84
2021/03/29 06:29:47;;;;;;;13.00;3.63;;;10.20;79.90;;;;;;5074814;28;20062;-85
2021/03/29 06:32:18;;;;;;;12.40;3.77;;;10.30;80.60;;;;;;5057656;28;20029;-84
2021/03/29 06:34:44;;;;;;;12.70;3.93;;;10.30;79.90;;;;;;5057520;28;20531;-84
2021/03/29 06:37:10;;;;;;;10.17;3.70;;;10.30;79.80;;;;;;5075246;28;20017;-84
2021/03/29 06:39:37;;;;;;;12.13;3.57;;;10.30;79.70;;;;;;5074898;28;20031;-84
2021/03/29 06:42:04;;;;;;;10.27;3.73;;;10.30;79.90;;;;;;5057785;28;20444;-85
2021/03/29 06:44:35;;;;;;;12.10;3.47;;;10.40;79.80;;;;;;5075554;28;20027;-84
2021/03/29 06:47:11;;;;;;;11.27;3.27;;;10.40;79.90;;;;;;5076066;28;20013;-85
2021/03/29 06:49:37;;;;;;;11.13;3.20;;;10.50;79.80;;;;;;5057270;28;20378;-85
2021/03/29 06:52:37;;;;;;;9.20;3.07;;;10.50;79.70;;;;;;5075855;28;20065;-85
2021/03/29 06:55:22;;;;;;;11.50;3.70;;;10.50;79.60;;;;;;5058095;28;20021;-85
2021/03/29 06:58:04;;;;;;;14.17;3.67;;;10.60;79.60;;;;;;5075418;28;20029;-85
2021/03/29 07:00:35;;;;;;;14.93;3.90;;;10.60;79.40;;;;;;5057787;28;20051;-85
2021/03/29 07:03:05;;;;;;;11.27;3.37;;;10.70;79.10;;;;;;5075756;28;20099;-84
2021/03/29 07:05:32;;;;;;;10.23;3.57;;;10.70;79.30;;;;;;5057824;28;20039;-85
2021/03/29 07:08:00;;;;;;;15.97;3.80;;;10.80;79.20;;;;;;5057403;28;20025;-85
2021/03/29 07:10:29;;;;;;;12.43;3.57;;;10.80;78.70;;;;;;5057141;28;20540;-85
2021/03/29 07:12:56;;;;;;;;;;;10.80;79.00;;;;;;5056462;28;20369;-84
2021/03/29 07:15:22;;;;;;;8.87;2.97;;;10.80;79.00;;;;;;5075527;28;19904;-85
2021/03/29 07:17:49;;;;;;;12.73;3.40;;;10.90;79.00;;;;;;5057107;28;20029;-85
2021/03/29 07:20:25;;;;;;;10.20;3.07;;;10.90;78.90;;;;;;5056581;28;20062;-84
2021/03/29 07:22:53;;;;;;;9.43;3.20;;;10.90;79.00;;;;;;5057226;28;20025;-84
2021/03/29 07:25:21;;;;;;;12.70;3.20;;;11.00;78.50;;;;;;5057029;28;20028;-85
2021/03/29 07:27:49;;;;;;;11.93;3.10;;;11.00;78.50;;;;;;5056596;28;20127;-85
2021/03/29 07:30:16;;;;;;;9.13;3.17;;;11.00;78.70;;;;;;5075065;28;20089;-85
2021/03/29 07:32:53;;;;;;;11.43;4.33;;;11.10;78.80;;;;;;5075995;28;20263;-85
2021/03/29 07:35:20;;;;;;;11.63;3.80;;;11.10;78.70;;;;;;5074459;28;20028;-85
2021/03/29 07:37:58;;;;;;;10.93;3.57;;;11.20;78.60;;;;;;5074999;28;20104;-86
2021/03/29 07:40:24;;;;;;;10.77;3.53;;;11.20;78.80;;;;;;5074349;28;20017;-85
2021/03/29 07:42:53;;;;;;;11.03;3.57;;;11.30;78.90;;;;;;5074608;28;20021;-86
2021/03/29 07:45:24;;;;;;;8.33;3.00;;;11.30;78.40;;;;;;5057155;28;20021;-85
2021/03/29 07:47:57;;;;;;;5.47;2.73;;;11.20;78.60;;;;;;5075336;28;20447;-85
2021/03/29 07:50:26;;;;;;;10.43;3.43;;;11.30;78.60;;;;;;5056593;28;20029;-85
2021/03/29 07:53:03;;;;;;;14.93;3.60;;;11.40;78.50;;;;;;5074840;28;20492;-86
2021/03/29 07:56:01;;;;;;;10.03;3.30;;;11.40;78.50;;;;;;5075097;28;20025;-86
2021/03/29 07:58:26;;;;;;;11.23;3.00;;;11.40;78.50;;;;;;5056861;28;20390;-86
2021/03/29 08:01:05;;;;;;;12.00;3.57;;;11.50;78.20;;;;;;5074212;28;20036;-86
2021/03/29 08:03:39;;;;;;;9.73;3.27;;;11.50;78.10;;;;;;5056229;28;20214;-86
2021/03/29 08:06:06;;;;;;;11.47;3.30;;;11.50;78.20;;;;;;5056763;28;20028;-85
2021/03/29 08:08:39;;;;;;;11.43;3.57;;;11.60;78.40;;;;;;5056466;28;20028;-86
2021/03/29 08:11:14;;;;;;;9.60;3.50;;;11.60;78.10;;;;;;5074266;28;20020;-86
2021/03/29 08:13:48;;;;;;;11.27;3.60;;;11.70;77.90;;;;;;5056441;28;20056;-85
2021/03/29 08:16:20;;;;;;;9.00;2.70;;;11.70;78.20;;;;;;5056083;28;20215;-86
2021/03/29 08:19:05;;;;;;;8.23;2.80;;;11.70;78.10;;;;;;5055818;28;20035;-86
2021/03/29 08:22:03;;;;;;;12.90;3.77;;;11.80;78.30;;;;;;5073697;28;20453;-86
2021/03/29 08:24:32;;;;;;;11.17;3.10;;;11.80;78.30;;;;;;5055094;28;20029;-86
2021/03/29 08:27:14;;;;;;;10.43;3.43;;;11.80;78.10;;;;;;5056449;28;20473;-85
2021/03/29 08:29:47;;;;;;;12.87;4.07;;;11.80;77.90;;;;;;5073256;28;20090;-86
2021/03/29 08:32:33;;;;;;;9.70;3.17;;;11.80;78.40;;;;;;5055739;28;20070;-85
2021/03/29 08:35:10;;;;;;;10.43;3.20;;;11.80;78.40;;;;;;5074501;28;20363;-85
2021/03/29 08:37:56;;;;;;;9.30;3.00;;;11.90;78.70;;;;;;5074358;28;20416;-85
2021/03/29 08:40:33;;;;;;;10.60;3.23;;;11.90;78.60;;;;;;5072063;28;20155;-86
2021/03/29 08:43:03;;;;;;;7.83;2.83;;;11.90;78.40;;;;;;5073911;28;20024;-85
2021/03/29 08:45:29;;;;;;;9.87;3.43;;;12.00;78.70;;;;;;5055970;28;20035;-86
2021/03/29 08:47:57;;;;;;;13.33;3.53;;;12.10;78.80;;;;;;5074050;28;20035;-85
2021/03/29 08:50:27;;;;;;;14.90;3.23;;;12.10;78.80;;;;;;5055757;28;20029;-86
2021/03/29 08:52:59;;;;;;;9.80;3.03;;;12.20;78.40;;;;;;5074599;28;20046;-85
2021/03/29 08:55:30;;;;;;;11.07;3.03;;;12.20;78.60;;;;;;5073841;28;20072;-85
2021/03/29 08:57:57;;;;;;;9.27;3.00;;;12.20;78.80;;;;;;5072143;28;20378;-85
2021/03/29 09:00:25;;;;;;;8.20;2.60;;;12.30;78.50;;;;;;5055081;28;20636;-86
2021/03/29 09:02:51;;;;;;;10.38;2.53;;;12.30;78.20;;;;;;5055624;28;20024;-86
2021/03/29 09:05:19;;;;;;;10.50;2.73;;;12.50;76.50;;;;;;5055355;28;20028;-86
2021/03/29 09:07:48;;;;;;;8.93;2.90;;;12.50;76.30;;;;;;5057466;28;20048;-85
2021/03/29 09:10:18;;;;;;;10.80;2.97;;;12.50;75.60;;;;;;5055197;28;20112;-85
2021/03/29 09:12:45;;;;;;;15.53;3.93;;;12.70;74.70;;;;;;5056520;28;20500;-86
2021/03/29 09:15:15;;;;;;;14.43;4.00;;;12.80;72.30;;;;;;5055280;28;20033;-86
2021/03/29 09:17:43;;;;;;;15.47;5.13;;;12.80;71.50;;;;;;5055208;28;20029;-85
2021/03/29 09:59:35;;;;;;;11.03;3.40;;;13.70;61.20;;;;;;5072422;28;20086;-86
2021/03/29 10:50:31;;;;;;;7.95;1.80;;;14.80;46.40;;;;;;5013349;28;20036;-86
2021/03/29 10:54:00;;;;;;;7.43;1.85;;;14.90;45.00;;;;;;4973874;28;20038;-85
2021/03/29 11:07:55;;;;;;;4.55;2.00;;;15.20;46.20;;;;;;4935323;29;20384;-86
2021/03/29 11:24:44;;;;;;;6.55;1.75;;;15.70;45.60;;;;;;4733838;30;20170;-86
2021/03/29 11:27:10;;;;;;;7.10;2.10;;;15.80;44.30;;;;;;4768657;29;20038;-86
2021/03/29 11:29:35;;;;;;;7.43;2.63;;;15.70;45.10;;;;;;4888694;29;20040;-86
2021/03/29 11:32:01;;;;;;;8.50;2.92;;;15.70;45.80;;;;;;4999841;28;20036;-86
2021/03/29 11:34:50;;;;;;;5.38;2.28;;;15.80;45.40;;;;;;5056403;28;20031;-86
2021/03/29 11:41:31;;;;;;;7.47;2.47;;;15.90;43.30;;;;;;5031501;28;20037;-85
2021/03/29 11:45:13;;;;;;;5.78;2.38;;;16.00;43.10;;;;;;4953954;28;20229;-85
2021/03/29 11:51:43;;;;;;;7.70;2.40;;;16.10;41.40;;;;;;4934170;29;20055;-85
2021/03/29 12:05:33;;;;;;;7.90;2.63;;;16.30;40.40;;;;;;4822771;29;20075;-86
2021/03/29 12:11:45;;;;;;;8.55;3.03;;;16.60;39.20;;;;;;4768180;30;20043;-86
2021/03/29 12:15:16;;;;;;;6.28;2.42;;;16.40;42.70;;;;;;4794552;29;20083;-85
2021/03/29 12:17:45;;;;;;;7.80;2.65;;;16.50;40.70;;;;;;4850774;28;20047;-86
2021/03/29 12:20:14;;;;;;;9.52;2.20;;;16.60;41.80;;;;;;5031185;28;20033;-85
2021/03/29 12:22:43;;;;;;;6.30;2.00;;;16.50;43.80;;;;;;5073444;28;20025;-84
2021/03/29 12:25:14;;;;;;;8.02;2.30;;;16.50;44.50;;;;;;5055714;28;20116;-85
2021/03/29 12:27:41;;;;;;;8.73;3.08;;;16.60;44.80;;;;;;5074350;28;20036;-85
2021/03/29 12:30:13;;;;;;;6.22;2.70;;;16.70;42.80;;;;;;5056042;28;20024;-86
2021/03/29 12:32:39;;;;;;;6.00;1.70;;;16.70;40.90;;;;;;5074446;28;20090;-86
2021/03/29 12:35:10;;;;;;;3.75;1.73;;;16.70;40.50;;;;;;5055836;28;20070;-85
2021/03/29 12:37:36;;;;;;;7.05;1.90;;;16.80;39.70;;;;;;5073810;28;20020;-85
2021/03/29 12:40:08;;;;;;;4.93;2.25;;;16.90;39.10;;;;;;5072744;28;20021;-85
2021/03/29 12:42:38;;;;;;;6.60;2.42;;;16.90;39.10;;;;;;5055593;28;20016;-86
2021/03/29 12:45:05;;;;;;;9.88;2.25;;;17.00;39.60;;;;;;5055199;28;20074;-85
2021/03/29 12:47:32;;;;;;;8.10;2.65;;;16.90;39.80;;;;;;5072994;28;20021;-86
2021/03/29 12:50:12;;;;;;;5.95;2.50;;;16.90;40.40;;;;;;5054415;28;20081;-85
2021/03/29 12:52:40;;;;;;;8.07;1.90;;;17.10;40.50;;;;;;5073257;28;20021;-85
2021/03/29 12:55:08;;;;;;;6.45;2.50;;;17.10;39.30;;;;;;5054719;28;20540;-85
2021/03/29 12:57:33;;;;;;;8.45;2.83;;;17.00;39.10;;;;;;5054987;28;20238;-85
2021/03/29 13:00:07;;;;;;;8.40;3.05;;;17.00;37.70;;;;;;5072206;28;20116;-85
2021/03/29 13:02:33;;;;;;;9.52;3.15;;;17.00;38.10;;;;;;5054838;28;20035;-85
2021/03/29 13:06:00;;;;;;;9.75;2.50;;;17.00;39.20;;;;;;5055005;28;20392;-84
2021/03/29 13:08:27;;;;;;;6.80;2.17;;;17.20;40.30;;;;;;5047333;28;20035;-86
2021/03/29 13:13:40;;;;;;;6.70;2.33;;;17.30;38.90;;;;;;5073408;28;20086;-85
2021/03/29 13:16:06;;;;;;;6.60;1.98;;;17.20;38.30;;;;;;5056109;28;20025;-85
2021/03/29 13:18:31;;;;;;;9.95;2.40;;;17.40;38.00;;;;;;5056988;28;20082;-85
2021/03/29 13:20:57;;;;;;;7.30;2.60;;;17.40;38.00;;;;;;5073525;28;20024;-85
2021/03/29 13:23:23;;;;;;;9.15;2.28;;;17.40;37.80;;;;;;5073955;28;20093;-86
2021/03/29 13:26:33;;;;;;;9.93;2.53;;;17.40;37.80;;;;;;5055685;28;20024;-84
2021/03/29 13:29:19;;;;;;;9.73;2.30;;;17.60;37.20;;;;;;5006596;22;20051;-85
2021/03/29 13:31:44;;;;;;;6.20;1.83;;;17.60;37.50;;;;;;5054266;28;20295;-85
2021/03/29 13:34:10;;;;;;;6.57;2.58;;;17.60;36.20;;;;;;5037322;28;20078;-85
2021/03/29 13:36:36;;;;;;;8.70;2.08;;;17.60;36.60;;;;;;5036102;28;20029;-84
2021/03/29 13:39:03;;;;;;;6.80;2.15;;;17.60;36.30;;;;;;5038092;28;20033;-85
2021/03/29 13:41:31;;;;;;;3.70;1.70;;;17.50;36.50;;;;;;5055618;28;20025;-85
2021/03/29 13:43:56;;;;;;;8.95;2.22;;;17.80;36.00;;;;;;5072891;28;20116;-84
2021/03/29 13:46:22;;;;;;;6.88;1.95;;;17.80;36.90;;;;;;5055981;28;20056;-85
2021/03/29 13:48:50;;;;;;;5.85;1.92;;;17.80;37.00;;;;;;5073058;28;20033;-84
2021/03/29 13:51:16;;;;;;;4.17;1.80;;;17.70;37.10;;;;;;5056041;28;20056;-85
2021/03/29 13:54:07;;;;;;;7.45;2.08;;;17.80;37.30;;;;;;5056498;28;20355;-85
2021/03/29 13:56:30;;;;;;;5.40;1.60;;;17.80;36.00;;;;;;5074434;28;20416;-85
2021/03/29 13:58:55;;;;;;;6.57;2.15;;;17.80;35.00;;;;;;5055529;28;20108;-85
2021/03/29 14:01:22;;;;;;;7.15;2.35;;;17.80;35.40;;;;;;5072076;28;20502;-85
2021/03/29 14:03:48;;;;;;;7.65;1.98;;;17.70;36.40;;;;;;5055579;28;20044;-85
2021/03/29 14:06:13;;;;;;;6.07;1.92;;;17.80;37.30;;;;;;5072148;28;20024;-84
2021/03/29 14:08:39;;;;;;;5.38;1.85;;;17.90;36.50;;;;;;5055782;28;20020;-85
2021/03/29 14:11:06;;;;;;;5.63;2.15;;;18.00;36.50;;;;;;5071950;28;20031;-85
2021/03/29 14:13:32;;;;;;;4.57;1.95;;;18.10;35.00;;;;;;5074763;28;20034;-85
2021/03/29 14:15:58;;;;;;;3.72;1.60;;;18.10;35.70;;;;;;5073734;28;20024;-86
2021/03/29 14:18:24;;;;;;;5.30;1.70;;;18.00;35.10;;;;;;5073280;28;20624;-85
2021/03/29 14:20:50;;;;;;;4.15;1.67;;;18.10;34.60;;;;;;5073180;28;20535;-86
2021/03/29 14:23:16;;;;;;;6.47;1.83;;;18.20;33.30;;;;;;5058183;28;20115;-85
2021/03/29 14:25:44;;;;;;;5.63;1.60;;;18.30;33.30;;;;;;5077264;28;20024;-85
2021/03/29 14:28:10;;;;;;;5.78;1.50;;;18.30;33.40;;;;;;5077467;28;20449;-85
2021/03/29 14:30:36;;;;;;;4.18;1.70;;;18.40;32.80;;;;;;5058498;28;20460;-85
2021/03/29 14:33:03;;;;;;;7.57;1.70;;;18.50;32.60;;;;;;5059209;28;20032;-85
2021/03/29 14:35:43;;;;;;;4.80;1.70;;;18.60;32.80;;;;;;5059142;28;20055;-86
2021/03/29 14:38:35;;;;;;;6.45;1.90;;;18.60;32.60;;;;;;5059197;28;20097;-85
2021/03/29 14:41:25;;;;;;;7.93;1.90;;;18.70;33.30;;;;;;5076378;28;20481;-85
2021/03/29 14:46:16;;;;;;;5.78;1.92;;;18.90;32.10;;;;;;5077148;28;20079;-85
2021/03/29 14:48:42;;;;;;;7.75;1.80;;;18.90;32.60;;;;;;5058460;28;20047;-86
2021/03/29 14:51:07;;;;;;;6.38;2.15;;;19.10;32.80;;;;;;5057982;28;20025;-85
2021/03/29 14:53:33;;;;;;;5.05;1.80;;;19.10;32.70;;;;;;5076324;28;20527;-86
2021/03/29 14:55:59;;;;;;;5.22;1.83;;;19.30;32.40;;;;;;5058567;28;20024;-85
2021/03/29 14:58:25;;;;;;;6.43;2.47;;;19.40;32.40;;;;;;5076102;28;20032;-85
2021/03/29 15:00:50;;;;;;;6.18;2.00;;;19.50;30.60;;;;;;5057861;28;20110;-85
2021/03/29 15:03:19;;;;;;;4.68;2.05;;;19.70;29.80;;;;;;5059736;28;20029;-85
2021/03/29 15:08:22;;;;;;;7.03;2.50;;;20.00;29.80;;;;;;5078273;28;20029;-85
2021/03/29 15:10:48;;;;;;;6.15;1.85;;;20.00;30.00;;;;;;5058422;28;20028;-86
2021/03/29 15:13:14;;;;;;;6.03;2.30;;;20.10;30.10;;;;;;5058671;28;20066;-85
2021/03/29 15:15:39;;;;;;;5.75;1.92;;;20.10;30.30;;;;;;5058072;28;20025;-85
2021/03/29 15:18:05;;;;;;;6.32;2.28;;;20.20;31.20;;;;;;5057721;28;20025;-86
2021/03/29 15:20:31;;;;;;;4.03;1.95;;;20.40;30.30;;;;;;5073197;28;20016;-85
2021/03/29 15:22:57;;;;;;;6.40;2.00;;;20.50;29.90;;;;;;5056814;28;20020;-85
2021/03/29 15:25:23;;;;;;;6.20;2.15;;;20.60;29.50;;;;;;5056413;28;20024;-86
2021/03/29 15:27:48;;;;;;;6.68;1.90;;;20.80;29.70;;;;;;5074686;28;20103;-86